createdAt,value
2023-01-03T00:01:57.124Z,154.63
2023-01-03T00:04:47.461Z,135.67
2023-01-03T00:07:35.691Z,140.30
2023-01-03T00:10:19.170Z,141.97
2023-01-03T00:13:01.420Z,141.10
2023-01-03T00:15:44.640Z,125.63
2023-01-03T00:18:28.229Z,140.43
2023-01-03T00:21:13.621Z,134.93
2023-01-03T00:23:58.010Z,132.03
2023-01-03T00:26:43.060Z,135.13
2023-01-03T00:29:27.095Z,149.83
2023-01-03T00:32:10.421Z,141.07
2023-01-03T00:34:53.642Z,134.87
2023-01-03T00:37:38.268Z,135.83
2023-01-03T00:40:21.421Z,131.63
2023-01-03T00:43:22.005Z,123.33
2023-01-03T00:46:06.236Z,126.23
2023-01-03T00:48:52.017Z,93.53
2023-01-03T00:51:41.316Z,99.33
2023-01-03T00:54:26.124Z,117.13
2023-01-03T00:57:09.183Z,116.93
2023-01-03T00:59:52.341Z,121.03
2023-01-03T01:02:35.510Z,122.37
2023-01-03T01:05:19.548Z,118.27
2023-01-03T01:08:02.954Z,113.60
2023-01-03T01:11:03.065Z,118.17
2023-01-03T01:13:47.350Z,108.50
2023-01-03T01:16:33.163Z,109.87
2023-01-03T01:19:17.406Z,111.60
2023-01-03T01:22:00.971Z,98.70
2023-01-03T01:24:44.171Z,73.60
2023-01-03T01:27:31.776Z,52.53
2023-01-03T01:30:15.020Z,82.30
2023-01-03T01:32:58.343Z,93.33
2023-01-03T01:35:41.411Z,90.60
2023-01-03T01:38:24.661Z,82.73
2023-01-03T01:41:07.990Z,78.93
2023-01-03T01:44:17.252Z,86.10
2023-01-03T01:47:00.408Z,108.33
2023-01-03T01:49:45.359Z,111.43
2023-01-03T01:52:31.414Z,103.67
2023-01-03T01:55:19.815Z,103.77
2023-01-03T01:58:03.799Z,109.10
2023-01-03T02:00:48.832Z,104.93
2023-01-03T02:03:32.053Z,114.37
2023-01-03T02:06:18.475Z,105.40
2023-01-03T02:09:01.881Z,104.70
2023-01-03T02:12:13.688Z,103.33
2023-01-03T02:15:18.475Z,102.30
2023-01-03T02:18:22.612Z,97.87
2023-01-03T02:21:44.195Z,100.50
2023-01-03T02:24:54.736Z,96.03
2023-01-03T02:28:16.838Z,100.60
2023-01-03T02:31:06.559Z,97.10
2023-01-03T02:33:58.303Z,101.70
2023-01-03T02:36:48.920Z,91.77
2023-01-03T02:39:41.353Z,94.43
2023-01-03T02:42:49.152Z,90.73
2023-01-03T02:45:50.769Z,91.73
2023-01-03T02:48:52.548Z,96.10
2023-01-03T02:51:39.150Z,93.60
2023-01-03T02:54:28.379Z,92.73
2023-01-03T02:57:16.767Z,88.03
2023-01-03T03:00:08.381Z,93.03
2023-01-03T03:02:55.562Z,87.50
2023-01-03T03:05:49.099Z,83.60
2023-01-03T03:08:32.216Z,77.93
2023-01-03T03:11:33.925Z,78.73
2023-01-03T03:14:24.043Z,77.30
2023-01-03T03:17:13.323Z,69.53
2023-01-03T03:20:16.060Z,69.93
2023-01-03T03:23:23.338Z,70.70
2023-01-03T03:26:11.181Z,69.70
2023-01-03T03:28:58.824Z,69.73
2023-01-03T03:31:45.173Z,68.57
2023-01-03T03:34:31.024Z,65.23
2023-01-03T03:37:18.108Z,68.87
2023-01-03T03:40:20.699Z,77.50
2023-01-03T03:43:27.604Z,75.20
2023-01-03T03:46:22.887Z,78.00
2023-01-03T03:49:30.412Z,69.27
2023-01-03T03:52:17.228Z,69.80
2023-01-03T03:55:07.765Z,82.20
2023-01-03T03:57:58.808Z,75.57
2023-01-03T04:00:45.567Z,66.03
2023-01-03T04:03:32.169Z,72.43
2023-01-03T04:06:23.939Z,67.53
2023-01-03T04:09:09.190Z,68.43
2023-01-03T04:11:54.070Z,77.70
2023-01-03T04:14:37.388Z,66.20
2023-01-03T04:17:21.050Z,58.10
2023-01-03T04:20:04.299Z,59.23
2023-01-03T04:22:47.522Z,52.93
2023-01-03T04:25:30.625Z,56.03
2023-01-03T04:28:15.288Z,53.97
2023-01-03T04:30:59.104Z,59.50
2023-01-03T04:33:42.783Z,51.13
2023-01-03T04:36:29.745Z,53.20
2023-01-03T04:39:12.948Z,60.93
2023-01-03T04:41:56.246Z,58.00
2023-01-03T04:44:40.003Z,61.27
2023-01-03T04:47:23.384Z,57.97
2023-01-03T04:50:08.020Z,65.33
2023-01-03T04:52:53.646Z,84.67
2023-01-03T04:55:36.880Z,94.50
2023-01-03T04:58:20.819Z,81.67
2023-01-03T05:01:08.626Z,82.90
2023-01-03T05:03:51.969Z,84.73
2023-01-03T05:06:35.170Z,87.67
2023-01-03T05:09:18.594Z,85.63
2023-01-03T05:12:01.633Z,98.67
2023-01-03T05:14:44.746Z,95.33
2023-01-03T05:17:29.407Z,105.37
2023-01-03T05:20:30.378Z,98.17
2023-01-03T05:23:32.065Z,108.20
2023-01-03T05:26:18.640Z,132.03
2023-01-03T05:29:01.707Z,145.03
2023-01-03T05:31:45.243Z,130.43
2023-01-03T05:34:30.033Z,122.30
2023-01-03T05:37:13.369Z,126.97
2023-01-03T05:39:56.956Z,126.57
2023-01-03T05:42:40.095Z,117.97
2023-01-03T05:45:26.041Z,117.37
2023-01-03T05:48:10.092Z,123.20
2023-01-03T05:50:58.565Z,118.20
2023-01-03T05:53:41.700Z,118.60
2023-01-03T05:56:25.911Z,109.40
2023-01-03T05:59:10.517Z,121.07
2023-01-03T06:01:54.111Z,128.10
2023-01-03T06:04:37.520Z,134.97
2023-01-03T06:07:23.241Z,117.27
2023-01-03T06:10:09.138Z,125.00
2023-01-03T06:12:53.198Z,115.37
2023-01-03T06:15:36.471Z,113.40
2023-01-03T06:18:18.643Z,97.13
2023-01-03T06:21:03.730Z,104.83
2023-01-03T06:23:48.447Z,109.73
2023-01-03T06:26:32.281Z,109.53
2023-01-03T06:29:17.006Z,111.33
2023-01-03T06:32:06.878Z,101.33
2023-01-03T06:34:52.067Z,101.20
2023-01-03T06:37:35.544Z,92.90
2023-01-03T06:40:20.252Z,99.33
2023-01-03T06:43:03.516Z,104.50
2023-01-03T06:46:04.143Z,104.90
2023-01-03T06:49:06.935Z,103.33
2023-01-03T06:52:09.107Z,88.93
2023-01-03T06:54:55.123Z,109.80
2023-01-03T06:57:39.697Z,113.00
2023-01-03T07:00:22.833Z,122.60
2023-01-03T07:03:11.150Z,123.47
2023-01-03T07:05:55.001Z,127.57
2023-01-03T07:08:42.624Z,118.97
2023-01-03T07:11:29.204Z,107.03
2023-01-03T07:14:13.286Z,90.43
2023-01-03T07:16:58.925Z,87.93
2023-01-03T07:19:42.160Z,85.03
2023-01-03T07:22:25.238Z,89.50
2023-01-03T07:25:08.713Z,94.20
2023-01-03T07:28:00.450Z,97.30
2023-01-03T07:30:50.320Z,86.63
2023-01-03T07:33:34.987Z,98.70
2023-01-03T07:36:18.673Z,100.73
2023-01-03T07:39:01.812Z,105.03
2023-01-03T07:42:02.343Z,101.90
2023-01-03T07:44:45.463Z,107.87
2023-01-03T07:47:32.596Z,108.40
2023-01-03T07:50:16.074Z,108.40
2023-01-03T07:52:59.175Z,97.13
2023-01-03T07:55:42.241Z,99.60
2023-01-03T07:58:25.320Z,90.60
2023-01-03T08:01:09.615Z,92.90
2023-01-03T08:03:54.691Z,89.43
2023-01-03T08:06:37.863Z,85.97
2023-01-03T08:09:38.287Z,81.50
2023-01-03T08:12:38.962Z,75.17
2023-01-03T08:15:22.071Z,80.13
2023-01-03T08:18:05.995Z,77.30
2023-01-03T08:20:51.658Z,75.20
2023-01-03T08:23:35.476Z,79.00
2023-01-03T08:26:19.306Z,72.27
2023-01-03T08:29:02.525Z,80.87
2023-01-03T08:31:51.032Z,80.50
2023-01-03T08:34:38.253Z,83.10
2023-01-03T08:37:22.945Z,104.97
2023-01-03T08:40:07.415Z,113.00
2023-01-03T08:42:50.590Z,127.93
2023-01-03T08:45:33.885Z,98.93
2023-01-03T08:48:20.846Z,92.70
2023-01-03T08:51:04.462Z,82.97
2023-01-03T08:53:49.198Z,91.03
2023-01-03T08:56:32.386Z,90.00
2023-01-03T08:59:15.545Z,90.73
2023-01-03T09:01:59.750Z,92.33
2023-01-03T09:04:43.003Z,88.37
2023-01-03T09:07:26.295Z,77.93
2023-01-03T09:10:11.756Z,72.73
2023-01-03T09:12:54.954Z,69.50
2023-01-03T09:15:38.089Z,79.67
2023-01-03T09:18:22.202Z,82.47
2023-01-03T09:21:05.930Z,97.07
2023-01-03T09:23:49.091Z,76.90
2023-01-03T09:26:33.765Z,78.23
2023-01-03T09:29:18.538Z,62.77
2023-01-03T09:32:03.616Z,68.53
2023-01-03T09:34:46.942Z,71.10
2023-01-03T09:37:30.217Z,85.53
2023-01-03T09:40:14.266Z,94.83
2023-01-03T09:43:23.148Z,84.63
2023-01-03T09:46:13.903Z,91.70
2023-01-03T09:48:58.726Z,95.67
2023-01-03T09:52:03.786Z,88.20
2023-01-03T09:55:04.405Z,75.90
2023-01-03T09:58:05.037Z,82.20
2023-01-03T10:01:12.588Z,76.30
2023-01-03T10:04:09.591Z,70.77
2023-01-03T10:07:02.821Z,69.80
2023-01-03T10:09:53.877Z,74.27
2023-01-03T10:12:43.455Z,72.23
2023-01-03T10:15:37.597Z,76.90
2023-01-03T10:18:37.442Z,79.87
2023-01-03T10:21:30.116Z,82.30
2023-01-03T10:24:19.782Z,88.47
2023-01-03T10:27:13.632Z,87.60
2023-01-03T10:30:00.537Z,84.33
2023-01-03T10:33:16.135Z,80.63
2023-01-03T10:36:00.808Z,87.50
2023-01-03T10:38:52.887Z,94.10
2023-01-03T10:41:44.073Z,95.03
2023-01-03T10:44:28.812Z,101.77
2023-01-03T10:47:20.653Z,104.70
2023-01-03T10:50:06.131Z,93.87
2023-01-03T10:52:58.393Z,85.67
2023-01-03T10:55:47.639Z,88.07
2023-01-03T10:58:36.236Z,70.13
2023-01-03T11:01:23.201Z,77.67
2023-01-03T11:04:15.414Z,69.73
2023-01-03T11:07:02.074Z,62.57
2023-01-03T11:09:51.506Z,63.83
2023-01-03T11:12:37.238Z,59.03
2023-01-03T11:15:25.175Z,64.77
2023-01-03T11:18:18.436Z,67.30
2023-01-03T11:21:13.997Z,61.37
2023-01-03T11:24:09.273Z,62.07
2023-01-03T11:27:03.955Z,60.40
2023-01-03T11:30:04.203Z,66.17
2023-01-03T11:33:28.985Z,66.30
2023-01-03T11:36:28.024Z,57.20
2023-01-03T11:39:28.549Z,59.77
2023-01-03T11:42:32.313Z,54.27
2023-01-03T11:45:36.042Z,58.20
2023-01-03T11:48:35.678Z,54.63
2023-01-03T11:51:27.773Z,52.93
2023-01-03T11:54:26.697Z,64.73
2023-01-03T11:57:19.428Z,56.07
2023-01-03T12:00:11.685Z,61.23
2023-01-03T12:03:05.294Z,61.40
2023-01-03T12:05:50.315Z,69.07
2023-01-03T12:08:55.457Z,73.63
2023-01-03T12:12:08.202Z,70.53
2023-01-03T12:14:56.472Z,91.80
2023-01-03T12:17:48.468Z,76.77
2023-01-03T12:20:35.793Z,77.37
2023-01-03T12:23:32.320Z,85.83
2023-01-03T12:26:17.387Z,84.67
2023-01-03T12:29:08.708Z,83.50
2023-01-03T12:31:58.510Z,90.07
2023-01-03T12:34:51.587Z,85.80
2023-01-03T12:37:40.710Z,84.73
2023-01-03T12:40:33.950Z,97.27
2023-01-03T12:43:26.473Z,89.70
2023-01-03T12:46:15.389Z,98.30
2023-01-03T12:49:04.728Z,107.30
2023-01-03T12:51:49.670Z,100.57
2023-01-03T12:54:41.321Z,94.30
2023-01-03T12:58:03.671Z,89.30
2023-01-03T13:00:59.575Z,97.03
2023-01-03T13:03:47.290Z,102.93
2023-01-03T13:06:34.763Z,89.27
2023-01-03T13:09:24.167Z,102.57
2023-01-03T13:12:09.869Z,87.27
2023-01-03T13:14:55.939Z,94.07
2023-01-03T13:17:45.344Z,90.40
2023-01-03T13:20:37.828Z,92.10
2023-01-03T13:23:57.955Z,97.63
2023-01-03T13:27:18.491Z,102.60
2023-01-03T13:30:05.096Z,104.73
2023-01-03T13:32:51.626Z,101.10
2023-01-03T13:35:37.296Z,103.30
2023-01-03T13:38:26.688Z,105.83
2023-01-03T13:41:32.616Z,106.37
2023-01-03T13:44:21.665Z,100.87
2023-01-03T13:47:06.255Z,101.53
2023-01-03T13:49:54.095Z,90.70
2023-01-03T13:52:56.682Z,90.47
2023-01-03T13:55:52.724Z,82.13
2023-01-03T13:58:44.754Z,83.67
2023-01-03T14:01:41.733Z,92.30
2023-01-03T14:04:48.390Z,87.90
2023-01-03T14:08:09.771Z,86.30
2023-01-03T14:11:10.578Z,115.40
2023-01-03T14:13:57.301Z,120.43
2023-01-03T14:16:47.353Z,124.60
2023-01-03T14:19:35.493Z,123.30
2023-01-03T14:22:31.346Z,127.73
2023-01-03T14:25:33.900Z,139.73
2023-01-03T14:28:20.720Z,121.63
2023-01-03T14:31:06.493Z,140.73
2023-01-03T14:33:55.749Z,124.10
2023-01-03T14:36:48.592Z,114.27
2023-01-03T14:42:17.485Z,112.03
2023-01-03T14:45:01.956Z,117.73
2023-01-03T14:47:48.233Z,123.70
2023-01-03T14:50:33.489Z,117.03
2023-01-03T14:53:18.975Z,118.67
2023-01-03T14:56:02.568Z,125.60
2023-01-03T14:58:47.983Z,123.30
2023-01-03T15:01:33.437Z,214.03
2023-01-03T15:04:18.362Z,183.03
2023-01-03T15:07:09.535Z,165.67
2023-01-03T15:10:06.343Z,126.40
2023-01-03T15:12:58.987Z,104.23
2023-01-03T15:15:54.115Z,102.30
2023-01-03T15:18:41.290Z,98.73
2023-01-03T15:21:24.580Z,76.77
2023-01-03T15:24:20.592Z,75.30
2023-01-03T15:27:40.368Z,64.23
2023-01-03T15:30:29.726Z,46.13
2023-01-03T15:33:24.988Z,33.27
2023-01-03T15:36:18.810Z,32.83
2023-01-03T15:39:02.832Z,27.27
2023-01-03T15:42:42.107Z,31.10
2023-01-03T15:45:13.407Z,26.17
2023-01-03T15:48:01.619Z,26.73
2023-01-03T15:50:48.868Z,31.90
2023-01-03T15:53:41.006Z,29.33
2023-01-03T15:56:31.790Z,33.97
2023-01-03T15:59:21.491Z,31.37
2023-01-03T16:02:16.100Z,31.93
2023-01-03T16:04:59.427Z,29.07
2023-01-03T16:07:43.640Z,29.60
2023-01-03T16:10:27.128Z,37.87
2023-01-03T16:13:11.347Z,34.03
2023-01-03T16:15:57.924Z,31.23
2023-01-03T16:18:45.981Z,32.40
2023-01-03T16:21:29.707Z,26.93
2023-01-03T16:24:16.412Z,28.63
2023-01-03T16:27:03.215Z,25.90
2023-01-03T16:29:46.558Z,24.50
2023-01-03T16:32:35.567Z,34.83
2023-01-03T16:35:21.201Z,29.63
2023-01-03T16:38:04.527Z,59.27
2023-01-03T16:40:53.177Z,54.53
2023-01-03T16:43:36.390Z,58.37
2023-01-03T16:46:24.114Z,68.57
2023-01-03T16:49:12.433Z,60.80
2023-01-03T16:52:01.578Z,67.50
2023-01-03T16:54:48.655Z,63.07
2023-01-03T16:57:31.818Z,59.10
2023-01-03T17:00:21.789Z,76.23
2023-01-03T17:03:08.788Z,70.13
2023-01-03T17:05:53.304Z,83.53
2023-01-03T17:08:41.640Z,87.27
2023-01-03T17:11:27.950Z,96.63
2023-01-03T17:14:17.418Z,116.50
2023-01-03T17:17:00.769Z,125.47
2023-01-03T17:20:03.278Z,112.07
2023-01-03T17:22:52.145Z,106.90
2023-01-03T17:25:39.251Z,114.37
2023-01-03T17:28:22.577Z,93.00
2023-01-03T17:31:05.999Z,89.93
2023-01-03T17:33:49.227Z,76.30
2023-01-03T17:36:34.083Z,83.90
2023-01-03T17:39:20.036Z,80.97
2023-01-03T17:42:16.668Z,85.80
2023-01-03T17:45:17.223Z,78.70
2023-01-03T17:48:19.165Z,74.90
2023-01-03T17:51:03.970Z,83.47
2023-01-03T17:56:30.635Z,84.93
2023-01-03T17:59:15.641Z,92.13
2023-01-03T18:01:59.068Z,105.33
2023-01-03T18:05:13.193Z,116.03
2023-01-03T18:07:45.928Z,121.27
2023-01-03T18:10:35.548Z,137.47
2023-01-03T18:13:24.162Z,123.10
2023-01-03T18:16:13.857Z,128.27
2023-01-03T18:18:57.021Z,113.30
2023-01-03T18:21:40.719Z,122.93
2023-01-03T18:24:31.218Z,121.07
2023-01-03T18:27:15.718Z,127.53
2023-01-03T18:29:58.775Z,137.33
2023-01-03T18:32:43.716Z,138.53
2023-01-03T18:35:32.539Z,176.70
2023-01-03T18:38:26.761Z,177.40
2023-01-03T18:41:18.889Z,211.67
2023-01-03T18:44:02.478Z,206.07
2023-01-03T18:46:47.893Z,183.73
2023-01-03T18:49:32.547Z,135.97
2023-01-03T18:52:24.937Z,159.33
2023-01-03T18:55:15.077Z,161.50
2023-01-03T18:58:07.562Z,142.97
2023-01-03T19:00:50.732Z,128.73
2023-01-03T19:03:35.661Z,101.70
2023-01-03T19:06:22.798Z,127.07
2023-01-03T19:09:12.289Z,115.40
2023-01-03T19:11:56.214Z,119.87
2023-01-03T19:14:44.927Z,143.37
2023-01-03T19:17:29.874Z,141.52
2023-01-03T19:20:13.708Z,95.50
2023-01-03T19:22:58.243Z,103.00
2023-01-03T19:25:41.323Z,76.67
2023-01-03T19:28:28.986Z,52.37
2023-01-03T19:31:13.391Z,34.40
2023-01-03T19:33:56.598Z,30.30
2023-01-03T19:36:39.687Z,29.90
2023-01-03T19:39:26.031Z,29.17
2023-01-03T19:42:33.790Z,26.10
2023-01-03T19:45:24.137Z,19.60
2023-01-03T19:48:18.280Z,27.30
2023-01-03T19:51:01.696Z,19.60
2023-01-03T19:53:44.801Z,24.90
2023-01-03T19:56:32.001Z,18.00
2023-01-03T19:59:26.661Z,21.63
2023-01-03T20:02:29.981Z,18.77
2023-01-03T20:05:18.616Z,19.63
2023-01-03T20:08:09.260Z,22.60
2023-01-03T20:10:56.189Z,43.13
2023-01-03T20:13:40.799Z,47.07
2023-01-03T20:16:25.357Z,64.93
2023-01-03T20:19:16.663Z,73.30
2023-01-03T20:22:00.197Z,85.50
2023-01-03T20:24:43.939Z,96.07
2023-01-03T20:27:29.156Z,99.93
2023-01-03T20:30:18.204Z,91.23
2023-01-03T20:33:04.539Z,73.40
2023-01-03T20:38:56.593Z,77.70
2023-01-03T20:41:39.848Z,79.03
2023-01-03T20:44:26.345Z,75.07
2023-01-03T20:47:15.161Z,81.77
2023-01-03T20:49:59.832Z,80.70
2023-01-03T20:52:43.162Z,75.30
2023-01-03T20:55:28.287Z,77.67
2023-01-03T20:58:17.328Z,70.40
2023-01-03T21:01:05.020Z,88.77
2023-01-03T21:03:50.531Z,83.23
2023-01-03T21:06:35.823Z,73.97
2023-01-03T21:09:19.455Z,74.50
2023-01-03T21:12:02.790Z,77.47
2023-01-03T21:14:49.716Z,82.90
2023-01-03T21:17:33.452Z,84.20
2023-01-03T21:20:28.343Z,92.67
2023-01-03T21:23:17.814Z,97.33
2023-01-03T21:26:02.814Z,99.57
2023-01-03T21:28:49.187Z,87.17
2023-01-03T21:31:36.141Z,95.80
2023-01-03T21:34:23.017Z,97.90
2023-01-03T21:37:10.749Z,107.60
2023-01-03T21:39:54.773Z,74.87
2023-01-03T21:43:01.603Z,100.30
2023-01-03T21:45:55.224Z,94.13
2023-01-03T21:48:38.621Z,67.83
2023-01-03T21:51:33.533Z,100.40
2023-01-03T21:54:22.978Z,61.27
2023-01-03T21:57:06.554Z,66.10
2023-01-03T21:59:49.831Z,57.93
2023-01-03T22:02:56.236Z,67.27
2023-01-03T22:05:43.092Z,65.27
2023-01-03T22:08:33.960Z,72.27
2023-01-03T22:11:19.506Z,66.80
2023-01-03T22:14:07.530Z,72.50
2023-01-03T22:16:51.092Z,67.97
2023-01-03T22:19:35.803Z,55.77
2023-01-03T22:22:19.476Z,67.27
2023-01-03T22:25:02.831Z,64.93
2023-01-03T22:27:51.659Z,60.27
2023-01-03T22:30:35.005Z,55.13
2023-01-03T22:33:18.478Z,63.90
2023-01-03T22:36:01.632Z,57.80
2023-01-03T22:38:46.835Z,56.07
2023-01-03T22:41:33.226Z,59.70
2023-01-03T22:44:18.279Z,62.93
2023-01-03T22:47:04.435Z,59.13
2023-01-03T22:49:48.021Z,62.57
2023-01-03T22:52:31.172Z,56.70
2023-01-03T22:55:15.578Z,56.47
2023-01-03T22:57:59.581Z,61.70
2023-01-03T23:00:47.201Z,65.13
2023-01-03T23:03:31.768Z,60.10
2023-01-03T23:06:17.544Z,64.93
2023-01-03T23:09:02.153Z,59.10
2023-01-03T23:12:05.068Z,60.80
2023-01-03T23:14:48.405Z,60.37
2023-01-03T23:17:50.786Z,59.00
2023-01-03T23:20:36.050Z,59.00
2023-01-03T23:23:20.237Z,53.77
2023-01-03T23:26:03.946Z,63.83
2023-01-03T23:28:49.139Z,70.63
2023-01-03T23:31:32.675Z,62.77
2023-01-03T23:34:19.430Z,59.60
2023-01-03T23:37:02.626Z,69.03
2023-01-03T23:39:50.464Z,71.10
2023-01-03T23:42:33.747Z,55.13
2023-01-03T23:45:17.032Z,67.47
2023-01-03T23:48:01.958Z,58.97
2023-01-03T23:50:47.153Z,64.53
2023-01-03T23:53:33.183Z,66.93
2023-01-03T23:56:21.174Z,68.60
2023-01-03T23:59:05.199Z,66.03
